sensor_id;sensor_type;location;lat;lon;timestamp;temperature;humidity
62581;DHT22;48640;48.770;9.148;2023-06-10T00:00:04;19.40;70.70
62581;DHT22;48640;48.770;9.148;2023-06-10T00:02:32;19.30;71.50
62581;DHT22;48640;48.770;9.148;2023-06-10T00:04:59;19.20;72.10
62581;DHT22;48640;48.770;9.148;2023-06-10T00:07:26;19.20;72.70
62581;DHT22;48640;48.770;9.148;2023-06-10T00:09:53;19.10;73.50
62581;DHT22;48640;48.770;9.148;2023-06-10T00:12:20;19.10;73.40
62581;DHT22;48640;48.770;9.148;2023-06-10T00:14:47;19.10;73.50
62581;DHT22;48640;48.770;9.148;2023-06-10T00:17:17;19.10;74.10
62581;DHT22;48640;48.770;9.148;2023-06-10T00:19:44;19.10;74.40
62581;DHT22;48640;48.770;9.148;2023-06-10T00:22:12;19.10;74.30
62581;DHT22;48640;48.770;9.148;2023-06-10T00:24:40;19.10;74.20
62581;DHT22;48640;48.770;9.148;2023-06-10T00:27:07;19.00;74.40
62581;DHT22;48640;48.770;9.148;2023-06-10T00:29:34;19.00;75.00
62581;DHT22;48640;48.770;9.148;2023-06-10T00:32:01;19.00;75.00
62581;DHT22;48640;48.770;9.148;2023-06-10T00:34:29;19.00;74.90
62581;DHT22;48640;48.770;9.148;2023-06-10T00:36:57;19.00;75.30
62581;DHT22;48640;48.770;9.148;2023-06-10T00:39:24;18.90;76.30
62581;DHT22;48640;48.770;9.148;2023-06-10T00:41:51;18.90;75.80
62581;DHT22;48640;48.770;9.148;2023-06-10T00:44:18;18.90;75.80
62581;DHT22;48640;48.770;9.148;2023-06-10T00:46:45;18.90;76.20
62581;DHT22;48640;48.770;9.148;2023-06-10T00:49:12;18.90;76.50
62581;DHT22;48640;48.770;9.148;2023-06-10T00:51:40;18.80;76.50
62581;DHT22;48640;48.770;9.148;2023-06-10T00:54:07;18.80;76.50
62581;DHT22;48640;48.770;9.148;2023-06-10T00:56:35;18.80;76.90
62581;DHT22;48640;48.770;9.148;2023-06-10T00:59:02;18.70;77.40
62581;DHT22;48640;48.770;9.148;2023-06-10T01:01:29;18.70;77.90
62581;DHT22;48640;48.770;9.148;2023-06-10T01:03:57;18.60;78.30
62581;DHT22;48640;48.770;9.148;2023-06-10T01:06:30;18.60;78.30
62581;DHT22;48640;48.770;9.148;2023-06-10T01:09:06;18.60;78.50
62581;DHT22;48640;48.770;9.148;2023-06-10T01:11:43;18.60;79.30
62581;DHT22;48640;48.770;9.148;2023-06-10T01:14:11;18.60;79.30
62581;DHT22;48640;48.770;9.148;2023-06-10T01:16:38;18.60;79.70
62581;DHT22;48640;48.770;9.148;2023-06-10T01:19:06;18.50;80.40
62581;DHT22;48640;48.770;9.148;2023-06-10T01:21:34;18.40;80.60
62581;DHT22;48640;48.770;9.148;2023-06-10T01:24:01;18.40;81.00
62581;DHT22;48640;48.770;9.148;2023-06-10T01:26:30;18.40;80.90
62581;DHT22;48640;48.770;9.148;2023-06-10T01:28:59;18.40;81.00
62581;DHT22;48640;48.770;9.148;2023-06-10T01:31:33;18.30;81.70
62581;DHT22;48640;48.770;9.148;2023-06-10T01:34:07;18.30;81.80
62581;DHT22;48640;48.770;9.148;2023-06-10T01:36:36;18.40;82.40
62581;DHT22;48640;48.770;9.148;2023-06-10T01:39:04;18.30;82.10
62581;DHT22;48640;48.770;9.148;2023-06-10T01:41:32;18.30;82.20
62581;DHT22;48640;48.770;9.148;2023-06-10T01:44:00;18.30;82.70
62581;DHT22;48640;48.770;9.148;2023-06-10T01:46:26;18.30;83.20
62581;DHT22;48640;48.770;9.148;2023-06-10T01:48:53;18.20;83.10
62581;DHT22;48640;48.770;9.148;2023-06-10T01:51:20;18.30;83.10
62581;DHT22;48640;48.770;9.148;2023-06-10T01:53:48;18.30;83.60
62581;DHT22;48640;48.770;9.148;2023-06-10T01:56:15;18.30;83.60
62581;DHT22;48640;48.770;9.148;2023-06-10T01:58:44;18.30;83.90
62581;DHT22;48640;48.770;9.148;2023-06-10T02:01:11;18.20;84.00
62581;DHT22;48640;48.770;9.148;2023-06-10T02:03:38;18.20;84.60
62581;DHT22;48640;48.770;9.148;2023-06-10T02:06:05;18.10;85.00
62581;DHT22;48640;48.770;9.148;2023-06-10T02:08:31;18.10;86.40
62581;DHT22;48640;48.770;9.148;2023-06-10T02:11:00;18.00;85.80
62581;DHT22;48640;48.770;9.148;2023-06-10T02:13:26;18.00;85.90
62581;DHT22;48640;48.770;9.148;2023-06-10T02:15:53;18.10;85.60
62581;DHT22;48640;48.770;9.148;2023-06-10T02:18:20;18.10;85.50
62581;DHT22;48640;48.770;9.148;2023-06-10T02:20:47;18.20;85.50
62581;DHT22;48640;48.770;9.148;2023-06-10T02:23:14;18.10;86.10
62581;DHT22;48640;48.770;9.148;2023-06-10T02:25:41;18.10;86.40
62581;DHT22;48640;48.770;9.148;2023-06-10T02:28:09;18.10;86.10
62581;DHT22;48640;48.770;9.148;2023-06-10T02:30:38;18.10;86.50
62581;DHT22;48640;48.770;9.148;2023-06-10T02:33:05;18.10;86.60
62581;DHT22;48640;48.770;9.148;2023-06-10T02:35:35;18.00;86.70
62581;DHT22;48640;48.770;9.148;2023-06-10T02:38:02;18.00;86.50
62581;DHT22;48640;48.770;9.148;2023-06-10T02:40:29;18.00;87.40
62581;DHT22;48640;48.770;9.148;2023-06-10T02:42:56;17.90;87.50
62581;DHT22;48640;48.770;9.148;2023-06-10T02:45:25;17.80;87.40
62581;DHT22;48640;48.770;9.148;2023-06-10T02:47:52;17.80;87.40
62581;DHT22;48640;48.770;9.148;2023-06-10T02:50:18;17.80;87.70
62581;DHT22;48640;48.770;9.148;2023-06-10T02:52:45;17.70;88.10
62581;DHT22;48640;48.770;9.148;2023-06-10T02:55:12;17.70;87.70
62581;DHT22;48640;48.770;9.148;2023-06-10T02:57:39;17.80;87.40
62581;DHT22;48640;48.770;9.148;2023-06-10T03:00:07;17.80;88.10
62581;DHT22;48640;48.770;9.148;2023-06-10T03:02:38;17.70;88.60
62581;DHT22;48640;48.770;9.148;2023-06-10T03:05:05;17.70;88.50
62581;DHT22;48640;48.770;9.148;2023-06-10T03:07:35;17.70;89.30
62581;DHT22;48640;48.770;9.148;2023-06-10T03:10:02;17.70;88.90
62581;DHT22;48640;48.770;9.148;2023-06-10T03:12:29;17.70;89.20
62581;DHT22;48640;48.770;9.148;2023-06-10T03:14:56;17.70;90.00
62581;DHT22;48640;48.770;9.148;2023-06-10T03:17:23;17.60;89.90
62581;DHT22;48640;48.770;9.148;2023-06-10T03:19:51;17.60;89.70
62581;DHT22;48640;48.770;9.148;2023-06-10T03:22:18;17.60;89.30
62581;DHT22;48640;48.770;9.148;2023-06-10T03:24:46;17.50;90.00
62581;DHT22;48640;48.770;9.148;2023-06-10T03:27:15;17.70;90.00
62581;DHT22;48640;48.770;9.148;2023-06-10T03:29:42;17.50;90.10
62581;DHT22;48640;48.770;9.148;2023-06-10T03:32:09;17.60;90.20
62581;DHT22;48640;48.770;9.148;2023-06-10T03:34:35;17.60;90.10
62581;DHT22;48640;48.770;9.148;2023-06-10T03:37:04;17.60;90.40
62581;DHT22;48640;48.770;9.148;2023-06-10T03:39:31;17.60;90.40
62581;DHT22;48640;48.770;9.148;2023-06-10T03:41:58;17.60;90.10
62581;DHT22;48640;48.770;9.148;2023-06-10T03:44:25;17.60;89.80
62581;DHT22;48640;48.770;9.148;2023-06-10T03:46:53;17.60;89.80
62581;DHT22;48640;48.770;9.148;2023-06-10T03:49:20;17.60;90.10
62581;DHT22;48640;48.770;9.148;2023-06-10T03:51:47;17.60;90.10
62581;DHT22;48640;48.770;9.148;2023-06-10T03:54:15;17.70;90.20
62581;DHT22;48640;48.770;9.148;2023-06-10T03:56:42;17.70;90.20
62581;DHT22;48640;48.770;9.148;2023-06-10T03:59:08;17.70;90.20
62581;DHT22;48640;48.770;9.148;2023-06-10T04:01:35;17.70;90.10
62581;DHT22;48640;48.770;9.148;2023-06-10T04:04:03;17.70;90.50
62581;DHT22;48640;48.770;9.148;2023-06-10T04:06:29;17.60;90.30
62581;DHT22;48640;48.770;9.148;2023-06-10T04:08:57;17.60;90.30
62581;DHT22;48640;48.770;9.148;2023-06-10T04:11:25;17.70;90.40
62581;DHT22;48640;48.770;9.148;2023-06-10T04:13:52;17.70;90.80
62581;DHT22;48640;48.770;9.148;2023-06-10T04:16:20;17.60;91.20
62581;DHT22;48640;48.770;9.148;2023-06-10T04:18:47;17.70;91.00
62581;DHT22;48640;48.770;9.148;2023-06-10T04:21:13;17.70;91.30
62581;DHT22;48640;48.770;9.148;2023-06-10T04:23:40;17.70;91.30
62581;DHT22;48640;48.770;9.148;2023-06-10T04:26:07;17.70;91.90
62581;DHT22;48640;48.770;9.148;2023-06-10T04:28:35;17.80;92.30
62581;DHT22;48640;48.770;9.148;2023-06-10T04:31:02;17.90;92.00
62581;DHT22;48640;48.770;9.148;2023-06-10T04:33:29;18.00;91.80
62581;DHT22;48640;48.770;9.148;2023-06-10T04:35:57;18.10;92.10
62581;DHT22;48640;48.770;9.148;2023-06-10T04:38:24;18.20;91.70
62581;DHT22;48640;48.770;9.148;2023-06-10T04:40:50;18.20;91.30
62581;DHT22;48640;48.770;9.148;2023-06-10T04:43:17;18.30;91.60
62581;DHT22;48640;48.770;9.148;2023-06-10T04:45:45;18.40;90.90
62581;DHT22;48640;48.770;9.148;2023-06-10T04:48:12;18.60;90.90
62581;DHT22;48640;48.770;9.148;2023-06-10T04:50:39;18.70;90.60
62581;DHT22;48640;48.770;9.148;2023-06-10T04:53:06;18.90;90.50
62581;DHT22;48640;48.770;9.148;2023-06-10T04:55:34;19.00;90.30
62581;DHT22;48640;48.770;9.148;2023-06-10T04:58:01;19.10;90.30
62581;DHT22;48640;48.770;9.148;2023-06-10T05:00:28;19.20;90.20
62581;DHT22;48640;48.770;9.148;2023-06-10T05:02:56;19.30;89.20
62581;DHT22;48640;48.770;9.148;2023-06-10T05:05:23;19.60;87.40
62581;DHT22;48640;48.770;9.148;2023-06-10T05:07:50;19.70;84.80
62581;DHT22;48640;48.770;9.148;2023-06-10T05:10:16;19.80;84.10
62581;DHT22;48640;48.770;9.148;2023-06-10T05:12:43;19.80;82.90
62581;DHT22;48640;48.770;9.148;2023-06-10T05:15:10;20.10;82.70
62581;DHT22;48640;48.770;9.148;2023-06-10T05:17:37;20.40;80.90
62581;DHT22;48640;48.770;9.148;2023-06-10T05:20:06;20.60;80.60
62581;DHT22;48640;48.770;9.148;2023-06-10T05:22:33;20.80;79.30
62581;DHT22;48640;48.770;9.148;2023-06-10T05:25:01;21.00;77.40
62581;DHT22;48640;48.770;9.148;2023-06-10T05:27:28;21.30;76.00
62581;DHT22;48640;48.770;9.148;2023-06-10T05:29:55;21.80;75.20
62581;DHT22;48640;48.770;9.148;2023-06-10T05:32:22;22.30;73.10
62581;DHT22;48640;48.770;9.148;2023-06-10T05:34:48;23.00;70.50
62581;DHT22;48640;48.770;9.148;2023-06-10T05:37:16;23.80;66.90
62581;DHT22;48640;48.770;9.148;2023-06-10T05:39:43;24.70;64.80
62581;DHT22;48640;48.770;9.148;2023-06-10T05:42:10;25.30;63.30
62581;DHT22;48640;48.770;9.148;2023-06-10T05:44:37;26.30;58.60
62581;DHT22;48640;48.770;9.148;2023-06-10T05:47:04;26.70;55.90
62581;DHT22;48640;48.770;9.148;2023-06-10T05:49:31;26.70;54.70
62581;DHT22;48640;48.770;9.148;2023-06-10T05:51:58;26.70;54.60
62581;DHT22;48640;48.770;9.148;2023-06-10T05:54:26;27.00;53.60
62581;DHT22;48640;48.770;9.148;2023-06-10T05:56:53;27.20;54.00
62581;DHT22;48640;48.770;9.148;2023-06-10T05:59:20;27.10;53.10
62581;DHT22;48640;48.770;9.148;2023-06-10T06:01:48;27.20;54.20
62581;DHT22;48640;48.770;9.148;2023-06-10T06:04:15;27.50;52.50
62581;DHT22;48640;48.770;9.148;2023-06-10T06:06:42;27.00;52.10
62581;DHT22;48640;48.770;9.148;2023-06-10T06:09:09;27.40;51.20
62581;DHT22;48640;48.770;9.148;2023-06-10T06:11:37;27.50;51.20
62581;DHT22;48640;48.770;9.148;2023-06-10T06:14:04;27.30;51.00
62581;DHT22;48640;48.770;9.148;2023-06-10T06:16:31;27.20;52.30
62581;DHT22;48640;48.770;9.148;2023-06-10T06:18:57;27.00;53.40
62581;DHT22;48640;48.770;9.148;2023-06-10T06:21:24;26.30;53.40
62581;DHT22;48640;48.770;9.148;2023-06-10T06:23:51;25.80;54.80
62581;DHT22;48640;48.770;9.148;2023-06-10T06:26:18;26.30;53.30
62581;DHT22;48640;48.770;9.148;2023-06-10T06:28:46;26.70;53.40
62581;DHT22;48640;48.770;9.148;2023-06-10T06:31:13;26.80;52.40
62581;DHT22;48640;48.770;9.148;2023-06-10T06:33:39;26.50;53.00
62581;DHT22;48640;48.770;9.148;2023-06-10T06:36:06;26.70;52.80
62581;DHT22;48640;48.770;9.148;2023-06-10T06:38:33;26.90;51.80
62581;DHT22;48640;48.770;9.148;2023-06-10T06:41:00;27.30;52.20
62581;DHT22;48640;48.770;9.148;2023-06-10T06:43:29;27.50;52.80
62581;DHT22;48640;48.770;9.148;2023-06-10T06:45:57;27.20;53.10
62581;DHT22;48640;48.770;9.148;2023-06-10T06:48:24;27.00;52.60
62581;DHT22;48640;48.770;9.148;2023-06-10T06:50:51;27.10;52.30
62581;DHT22;48640;48.770;9.148;2023-06-10T06:53:18;27.60;52.10
62581;DHT22;48640;48.770;9.148;2023-06-10T06:55:45;27.90;51.00
62581;DHT22;48640;48.770;9.148;2023-06-10T06:58:11;28.20;50.80
62581;DHT22;48640;48.770;9.148;2023-06-10T07:00:38;28.20;49.50
62581;DHT22;48640;48.770;9.148;2023-06-10T07:03:06;28.60;50.30
62581;DHT22;48640;48.770;9.148;2023-06-10T07:05:33;29.50;47.00
62581;DHT22;48640;48.770;9.148;2023-06-10T07:08:00;28.70;48.20
62581;DHT22;48640;48.770;9.148;2023-06-10T07:10:27;28.50;48.60
62581;DHT22;48640;48.770;9.148;2023-06-10T07:12:54;28.30;49.20
62581;DHT22;48640;48.770;9.148;2023-06-10T07:15:21;28.00;50.30
62581;DHT22;48640;48.770;9.148;2023-06-10T07:17:48;28.60;49.70
62581;DHT22;48640;48.770;9.148;2023-06-10T07:20:16;29.00;47.60
62581;DHT22;48640;48.770;9.148;2023-06-10T07:22:43;29.40;46.50
62581;DHT22;48640;48.770;9.148;2023-06-10T07:25:10;29.30;46.60
62581;DHT22;48640;48.770;9.148;2023-06-10T07:27:37;28.80;47.30
62581;DHT22;48640;48.770;9.148;2023-06-10T07:30:05;29.10;47.00
62581;DHT22;48640;48.770;9.148;2023-06-10T07:32:33;29.40;46.00
62581;DHT22;48640;48.770;9.148;2023-06-10T07:35:00;29.80;45.60
62581;DHT22;48640;48.770;9.148;2023-06-10T07:37:28;30.20;45.20
62581;DHT22;48640;48.770;9.148;2023-06-10T07:39:55;29.90;46.20
62581;DHT22;48640;48.770;9.148;2023-06-10T07:42:22;30.30;44.20
62581;DHT22;48640;48.770;9.148;2023-06-10T07:44:49;30.60;43.70
62581;DHT22;48640;48.770;9.148;2023-06-10T07:47:16;30.40;43.90
62581;DHT22;48640;48.770;9.148;2023-06-10T07:49:42;30.10;44.30
62581;DHT22;48640;48.770;9.148;2023-06-10T07:52:09;29.90;44.20
62581;DHT22;48640;48.770;9.148;2023-06-10T07:54:37;29.90;45.60
62581;DHT22;48640;48.770;9.148;2023-06-10T07:57:05;30.20;46.10
62581;DHT22;48640;48.770;9.148;2023-06-10T07:59:32;30.90;44.00
62581;DHT22;48640;48.770;9.148;2023-06-10T08:01:59;30.80;44.40
62581;DHT22;48640;48.770;9.148;2023-06-10T08:04:26;31.40;43.50
62581;DHT22;48640;48.770;9.148;2023-06-10T08:06:52;32.00;41.60
62581;DHT22;48640;48.770;9.148;2023-06-10T08:09:19;31.70;41.10
62581;DHT22;48640;48.770;9.148;2023-06-10T08:11:48;32.30;40.40
62581;DHT22;48640;48.770;9.148;2023-06-10T08:14:16;32.90;39.40
62581;DHT22;48640;48.770;9.148;2023-06-10T08:16:43;33.90;37.70
62581;DHT22;48640;48.770;9.148;2023-06-10T08:19:10;34.20;37.20
62581;DHT22;48640;48.770;9.148;2023-06-10T08:21:37;34.50;36.10
62581;DHT22;48640;48.770;9.148;2023-06-10T08:24:05;34.80;36.10
62581;DHT22;48640;48.770;9.148;2023-06-10T08:26:32;35.30;36.00
62581;DHT22;48640;48.770;9.148;2023-06-10T08:29:00;35.70;35.30
62581;DHT22;48640;48.770;9.148;2023-06-10T08:31:27;36.60;33.60
62581;DHT22;48640;48.770;9.148;2023-06-10T08:33:54;36.40;32.40
62581;DHT22;48640;48.770;9.148;2023-06-10T08:36:21;36.30;31.80
62581;DHT22;48640;48.770;9.148;2023-06-10T08:38:47;35.80;33.00
62581;DHT22;48640;48.770;9.148;2023-06-10T08:41:17;36.00;32.80
62581;DHT22;48640;48.770;9.148;2023-06-10T08:43:50;36.30;32.20
62581;DHT22;48640;48.770;9.148;2023-06-10T08:46:22;36.30;31.80
62581;DHT22;48640;48.770;9.148;2023-06-10T08:48:49;36.00;31.80
62581;DHT22;48640;48.770;9.148;2023-06-10T08:51:18;35.90;33.20
62581;DHT22;48640;48.770;9.148;2023-06-10T08:53:50;35.80;32.70
62581;DHT22;48640;48.770;9.148;2023-06-10T08:56:20;36.50;31.70
62581;DHT22;48640;48.770;9.148;2023-06-10T08:58:48;36.80;31.10
62581;DHT22;48640;48.770;9.148;2023-06-10T09:01:15;37.80;29.80
62581;DHT22;48640;48.770;9.148;2023-06-10T09:03:43;37.80;29.20
62581;DHT22;48640;48.770;9.148;2023-06-10T09:06:10;37.80;29.00
62581;DHT22;48640;48.770;9.148;2023-06-10T09:08:37;36.50;30.40
62581;DHT22;48640;48.770;9.148;2023-06-10T09:11:05;35.90;30.30
62581;DHT22;48640;48.770;9.148;2023-06-10T09:13:32;35.20;31.60
62581;DHT22;48640;48.770;9.148;2023-06-10T09:15:59;35.20;32.60
62581;DHT22;48640;48.770;9.148;2023-06-10T09:18:28;36.40;31.10
62581;DHT22;48640;48.770;9.148;2023-06-10T09:20:56;37.30;29.90
62581;DHT22;48640;48.770;9.148;2023-06-10T09:23:23;37.90;28.90
62581;DHT22;48640;48.770;9.148;2023-06-10T09:25:56;37.10;29.90
62581;DHT22;48640;48.770;9.148;2023-06-10T09:28:24;36.90;29.50
62581;DHT22;48640;48.770;9.148;2023-06-10T09:31:02;36.70;30.10
62581;DHT22;48640;48.770;9.148;2023-06-10T09:33:29;37.10;30.50
62581;DHT22;48640;48.770;9.148;2023-06-10T09:35:57;37.00;29.80
62581;DHT22;48640;48.770;9.148;2023-06-10T09:38:30;36.70;29.70
62581;DHT22;48640;48.770;9.148;2023-06-10T09:40:58;36.10;30.50
62581;DHT22;48640;48.770;9.148;2023-06-10T09:43:39;35.80;30.70
62581;DHT22;48640;48.770;9.148;2023-06-10T09:46:07;36.00;31.40
62581;DHT22;48640;48.770;9.148;2023-06-10T09:48:41;35.70;31.00
62581;DHT22;48640;48.770;9.148;2023-06-10T09:51:10;35.50;30.90
62581;DHT22;48640;48.770;9.148;2023-06-10T09:53:37;35.30;31.50
62581;DHT22;48640;48.770;9.148;2023-06-10T09:56:04;35.60;32.00
62581;DHT22;48640;48.770;9.148;2023-06-10T09:58:35;36.60;30.60
62581;DHT22;48640;48.770;9.148;2023-06-10T10:01:05;37.30;29.60
62581;DHT22;48640;48.770;9.148;2023-06-10T10:03:32;37.00;29.10
62581;DHT22;48640;48.770;9.148;2023-06-10T10:05:59;36.30;29.20
62581;DHT22;48640;48.770;9.148;2023-06-10T10:08:28;36.20;30.40
62581;DHT22;48640;48.770;9.148;2023-06-10T10:10:56;37.30;29.80
62581;DHT22;48640;48.770;9.148;2023-06-10T10:13:26;37.20;28.70
62581;DHT22;48640;48.770;9.148;2023-06-10T10:15:55;35.60;30.80
62581;DHT22;48640;48.770;9.148;2023-06-10T10:18:24;35.10;31.40
62581;DHT22;48640;48.770;9.148;2023-06-10T10:20:58;34.40;32.50
62581;DHT22;48640;48.770;9.148;2023-06-10T10:23:32;33.90;33.30
62581;DHT22;48640;48.770;9.148;2023-06-10T10:26:00;32.40;35.00
62581;DHT22;48640;48.770;9.148;2023-06-10T10:28:41;32.50;34.90
62581;DHT22;48640;48.770;9.148;2023-06-10T10:31:09;33.60;33.60
62581;DHT22;48640;48.770;9.148;2023-06-10T10:33:42;34.10;32.70
62581;DHT22;48640;48.770;9.148;2023-06-10T10:36:10;34.80;32.10
62581;DHT22;48640;48.770;9.148;2023-06-10T10:38:39;34.60;32.90
62581;DHT22;48640;48.770;9.148;2023-06-10T10:41:07;35.20;31.30
62581;DHT22;48640;48.770;9.148;2023-06-10T10:43:35;35.20;31.30
62581;DHT22;48640;48.770;9.148;2023-06-10T10:46:08;35.20;32.00
62581;DHT22;48640;48.770;9.148;2023-06-10T10:48:38;35.70;30.00
62581;DHT22;48640;48.770;9.148;2023-06-10T10:51:06;35.70;31.10
62581;DHT22;48640;48.770;9.148;2023-06-10T10:53:33;35.80;30.00
62581;DHT22;48640;48.770;9.148;2023-06-10T10:56:04;36.10;29.80
62581;DHT22;48640;48.770;9.148;2023-06-10T10:58:31;36.10;29.60
62581;DHT22;48640;48.770;9.148;2023-06-10T11:00:58;36.50;30.20
62581;DHT22;48640;48.770;9.148;2023-06-10T11:03:28;36.60;28.90
62581;DHT22;48640;48.770;9.148;2023-06-10T11:05:57;35.80;29.50
62581;DHT22;48640;48.770;9.148;2023-06-10T11:08:46;35.70;29.80
62581;DHT22;48640;48.770;9.148;2023-06-10T11:11:25;35.70;30.30
62581;DHT22;48640;48.770;9.148;2023-06-10T11:14:05;35.90;30.60
62581;DHT22;48640;48.770;9.148;2023-06-10T11:16:39;36.40;30.60
62581;DHT22;48640;48.770;9.148;2023-06-10T11:19:06;36.40;29.90
62581;DHT22;48640;48.770;9.148;2023-06-10T11:21:45;35.20;30.90
62581;DHT22;48640;48.770;9.148;2023-06-10T11:24:23;33.90;33.00
62581;DHT22;48640;48.770;9.148;2023-06-10T11:26:51;33.90;33.10
62581;DHT22;48640;48.770;9.148;2023-06-10T11:29:18;34.20;33.10
62581;DHT22;48640;48.770;9.148;2023-06-10T11:31:49;34.50;32.20
62581;DHT22;48640;48.770;9.148;2023-06-10T11:34:22;34.20;32.60
62581;DHT22;48640;48.770;9.148;2023-06-10T11:36:53;34.60;32.70
62581;DHT22;48640;48.770;9.148;2023-06-10T11:39:21;34.60;32.40
62581;DHT22;48640;48.770;9.148;2023-06-10T11:41:53;34.70;32.00
62581;DHT22;48640;48.770;9.148;2023-06-10T11:44:21;34.80;32.00
62581;DHT22;48640;48.770;9.148;2023-06-10T11:46:48;35.20;31.00
62581;DHT22;48640;48.770;9.148;2023-06-10T11:49:15;34.80;31.60
62581;DHT22;48640;48.770;9.148;2023-06-10T11:51:42;34.30;33.10
62581;DHT22;48640;48.770;9.148;2023-06-10T11:54:15;33.90;33.50
62581;DHT22;48640;48.770;9.148;2023-06-10T11:56:42;34.00;33.30
62581;DHT22;48640;48.770;9.148;2023-06-10T11:59:10;33.60;32.60
62581;DHT22;48640;48.770;9.148;2023-06-10T12:01:41;33.50;34.00
62581;DHT22;48640;48.770;9.148;2023-06-10T12:04:10;33.40;33.90
62581;DHT22;48640;48.770;9.148;2023-06-10T12:06:44;33.80;33.90
62581;DHT22;48640;48.770;9.148;2023-06-10T12:09:17;32.90;34.70
62581;DHT22;48640;48.770;9.148;2023-06-10T12:11:44;32.20;34.60
62581;DHT22;48640;48.770;9.148;2023-06-10T12:14:13;31.50;36.60
62581;DHT22;48640;48.770;9.148;2023-06-10T12:16:40;31.60;36.90
62581;DHT22;48640;48.770;9.148;2023-06-10T12:19:07;31.80;36.00
62581;DHT22;48640;48.770;9.148;2023-06-10T12:21:36;32.10;36.50
62581;DHT22;48640;48.770;9.148;2023-06-10T12:24:08;32.30;35.80
62581;DHT22;48640;48.770;9.148;2023-06-10T12:26:41;32.10;35.40
62581;DHT22;48640;48.770;9.148;2023-06-10T12:29:17;32.10;37.00
62581;DHT22;48640;48.770;9.148;2023-06-10T12:31:57;32.30;35.50
62581;DHT22;48640;48.770;9.148;2023-06-10T12:34:32;32.40;34.60
62581;DHT22;48640;48.770;9.148;2023-06-10T12:36:59;32.10;36.20
62581;DHT22;48640;48.770;9.148;2023-06-10T12:39:26;31.90;36.20
62581;DHT22;48640;48.770;9.148;2023-06-10T12:41:54;31.30;36.30
62581;DHT22;48640;48.770;9.148;2023-06-10T12:44:30;31.00;36.40
62581;DHT22;48640;48.770;9.148;2023-06-10T12:46:57;30.60;36.30
62581;DHT22;48640;48.770;9.148;2023-06-10T12:49:24;30.20;36.90
62581;DHT22;48640;48.770;9.148;2023-06-10T12:51:51;29.70;38.10
62581;DHT22;48640;48.770;9.148;2023-06-10T12:54:18;29.40;38.70
62581;DHT22;48640;48.770;9.148;2023-06-10T12:56:45;29.00;40.10
62581;DHT22;48640;48.770;9.148;2023-06-10T12:59:12;28.70;40.20
62581;DHT22;48640;48.770;9.148;2023-06-10T13:01:41;28.70;40.80
62581;DHT22;48640;48.770;9.148;2023-06-10T13:04:08;28.80;40.80
62581;DHT22;48640;48.770;9.148;2023-06-10T13:06:35;29.10;42.10
62581;DHT22;48640;48.770;9.148;2023-06-10T13:09:05;29.80;38.90
62581;DHT22;48640;48.770;9.148;2023-06-10T13:11:33;29.70;38.60
62581;DHT22;48640;48.770;9.148;2023-06-10T13:14:01;29.40;38.90
62581;DHT22;48640;48.770;9.148;2023-06-10T13:16:28;29.00;39.60
62581;DHT22;48640;48.770;9.148;2023-06-10T13:18:57;28.70;42.00
62581;DHT22;48640;48.770;9.148;2023-06-10T13:21:24;28.70;42.00
62581;DHT22;48640;48.770;9.148;2023-06-10T13:23:51;28.90;40.50
62581;DHT22;48640;48.770;9.148;2023-06-10T13:26:17;29.10;40.90
62581;DHT22;48640;48.770;9.148;2023-06-10T13:28:44;29.30;41.10
62581;DHT22;48640;48.770;9.148;2023-06-10T13:31:11;29.30;39.60
62581;DHT22;48640;48.770;9.148;2023-06-10T13:33:38;29.10;39.60
62581;DHT22;48640;48.770;9.148;2023-06-10T13:36:07;28.70;41.30
62581;DHT22;48640;48.770;9.148;2023-06-10T13:38:34;28.70;41.70
62581;DHT22;48640;48.770;9.148;2023-06-10T13:41:00;29.10;40.80
62581;DHT22;48640;48.770;9.148;2023-06-10T13:43:27;29.40;40.40
62581;DHT22;48640;48.770;9.148;2023-06-10T13:45:54;29.50;39.00
62581;DHT22;48640;48.770;9.148;2023-06-10T13:48:21;29.10;39.10
62581;DHT22;48640;48.770;9.148;2023-06-10T13:50:48;29.20;39.80
62581;DHT22;48640;48.770;9.148;2023-06-10T13:53:16;29.50;39.70
62581;DHT22;48640;48.770;9.148;2023-06-10T13:55:43;29.80;38.60
62581;DHT22;48640;48.770;9.148;2023-06-10T13:58:09;29.90;38.70
62581;DHT22;48640;48.770;9.148;2023-06-10T14:00:36;29.80;38.40
62581;DHT22;48640;48.770;9.148;2023-06-10T14:03:03;29.70;39.40
62581;DHT22;48640;48.770;9.148;2023-06-10T14:05:30;29.50;39.10
62581;DHT22;48640;48.770;9.148;2023-06-10T14:07:57;29.30;39.30
62581;DHT22;48640;48.770;9.148;2023-06-10T14:10:25;29.10;39.90
62581;DHT22;48640;48.770;9.148;2023-06-10T14:12:52;28.80;40.50
62581;DHT22;48640;48.770;9.148;2023-06-10T14:15:19;28.80;40.40
62581;DHT22;48640;48.770;9.148;2023-06-10T14:17:46;28.90;39.40
62581;DHT22;48640;48.770;9.148;2023-06-10T14:20:12;29.00;39.80
62581;DHT22;48640;48.770;9.148;2023-06-10T14:22:39;29.00;40.60
62581;DHT22;48640;48.770;9.148;2023-06-10T14:25:07;29.20;39.60
62581;DHT22;48640;48.770;9.148;2023-06-10T14:27:35;29.30;39.30
62581;DHT22;48640;48.770;9.148;2023-06-10T14:30:02;29.30;39.30
62581;DHT22;48640;48.770;9.148;2023-06-10T14:32:30;29.30;40.30
62581;DHT22;48640;48.770;9.148;2023-06-10T14:34:56;29.40;39.00
62581;DHT22;48640;48.770;9.148;2023-06-10T14:37:23;29.50;38.80
62581;DHT22;48640;48.770;9.148;2023-06-10T14:39:50;29.50;39.30
62581;DHT22;48640;48.770;9.148;2023-06-10T14:42:17;29.10;39.10
62581;DHT22;48640;48.770;9.148;2023-06-10T14:44:45;28.70;40.10
62581;DHT22;48640;48.770;9.148;2023-06-10T14:47:12;28.40;40.40
62581;DHT22;48640;48.770;9.148;2023-06-10T14:49:39;28.30;40.70
62581;DHT22;48640;48.770;9.148;2023-06-10T14:52:07;28.40;41.80
62581;DHT22;48640;48.770;9.148;2023-06-10T14:54:34;28.50;41.60
62581;DHT22;48640;48.770;9.148;2023-06-10T14:57:01;28.70;41.30
62581;DHT22;48640;48.770;9.148;2023-06-10T14:59:28;28.90;41.20
62581;DHT22;48640;48.770;9.148;2023-06-10T15:01:56;28.90;41.00
62581;DHT22;48640;48.770;9.148;2023-06-10T15:04:25;28.80;41.20
62581;DHT22;48640;48.770;9.148;2023-06-10T15:06:52;28.60;40.20
62581;DHT22;48640;48.770;9.148;2023-06-10T15:09:19;28.30;40.50
62581;DHT22;48640;48.770;9.148;2023-06-10T15:11:46;28.10;40.60
62581;DHT22;48640;48.770;9.148;2023-06-10T15:14:12;27.90;41.20
62581;DHT22;48640;48.770;9.148;2023-06-10T15:16:39;27.90;42.20
62581;DHT22;48640;48.770;9.148;2023-06-10T15:19:07;27.90;42.50
62581;DHT22;48640;48.770;9.148;2023-06-10T15:21:35;27.90;41.90
62581;DHT22;48640;48.770;9.148;2023-06-10T15:24:01;27.80;42.10
62581;DHT22;48640;48.770;9.148;2023-06-10T15:26:28;27.50;42.90
62581;DHT22;48640;48.770;9.148;2023-06-10T15:28:55;27.50;43.30
62581;DHT22;48640;48.770;9.148;2023-06-10T15:31:22;27.30;43.50
62581;DHT22;48640;48.770;9.148;2023-06-10T15:33:48;27.30;44.10